createdAt,value
2019-06-10T00:02:03.741Z,52.86
2019-06-10T00:04:50.800Z,52.68
2019-06-10T00:07:37.458Z,52.53
2019-06-10T00:10:25.484Z,52.39
2019-06-10T00:13:12.968Z,52.24
2019-06-10T00:16:02.694Z,52.05
2019-06-10T00:18:50.852Z,51.78
2019-06-10T00:21:36.505Z,51.67
2019-06-10T00:24:24.189Z,51.45
2019-06-10T00:27:12.104Z,51.64
2019-06-10T00:30:02.857Z,51.65
2019-06-10T00:32:47.524Z,51.43
2019-06-10T00:35:34.807Z,51.38
2019-06-10T00:38:22.353Z,51.36
2019-06-10T00:41:13.684Z,51.62
2019-06-10T00:44:00.850Z,51.69
2019-06-10T00:46:46.128Z,51.92
2019-06-10T00:49:33.688Z,52.35
2019-06-10T00:52:21.921Z,52.43
2019-06-10T00:55:10.004Z,52.77
2019-06-10T00:57:56.513Z,53.16
2019-06-10T01:00:44.810Z,53.31
2019-06-10T01:03:32.782Z,53.37
2019-06-10T01:06:21.445Z,53.34
2019-06-10T01:09:11.453Z,53.14
2019-06-10T01:11:56.786Z,52.98
2019-06-10T01:14:44.314Z,53.02
2019-06-10T01:17:32.040Z,53.06
2019-06-10T01:20:21.044Z,53.22
2019-06-10T01:23:07.329Z,53.50
2019-06-10T01:25:55.434Z,53.52
2019-06-10T01:28:42.881Z,53.57
2019-06-10T01:31:31.703Z,53.72
2019-06-10T01:34:18.422Z,53.95
2019-06-10T01:37:06.776Z,54.19
2019-06-10T01:39:53.896Z,54.50
2019-06-10T01:42:41.438Z,54.36
2019-06-10T01:45:31.109Z,54.38
2019-06-10T01:48:16.700Z,54.30
2019-06-10T01:51:03.620Z,54.30
2019-06-10T01:53:51.766Z,54.22
2019-06-10T01:56:40.898Z,54.27
2019-06-10T01:59:26.644Z,54.40
2019-06-10T02:02:17.749Z,54.67
2019-06-10T02:05:04.636Z,54.83
2019-06-10T02:07:52.604Z,54.76
2019-06-10T02:10:41.504Z,54.82
2019-06-10T02:13:33.459Z,54.96
2019-06-10T02:16:23.394Z,55.18
2019-06-10T02:19:07.391Z,55.34
2019-06-10T02:21:54.928Z,55.34
2019-06-10T02:24:42.850Z,55.39
2019-06-10T02:27:31.444Z,55.75
2019-06-10T02:30:35.041Z,56.08
2019-06-10T02:33:06.418Z,55.93
2019-06-10T02:35:54.129Z,56.12
2019-06-10T02:38:44.490Z,56.22
2019-06-10T02:41:35.381Z,56.47
2019-06-10T02:44:21.788Z,56.44
2019-06-10T02:47:04.420Z,56.65
2019-06-10T02:49:59.092Z,56.71
2019-06-10T02:52:39.693Z,57.08
2019-06-10T02:55:30.905Z,57.27
2019-06-10T02:58:15.676Z,57.42
2019-06-10T03:01:04.200Z,57.36
2019-06-10T03:03:53.923Z,57.16
2019-06-10T03:06:40.146Z,57.21
2019-06-10T03:09:29.388Z,56.97
2019-06-10T03:12:13.752Z,56.85
2019-06-10T03:15:02.105Z,56.96
2019-06-10T03:17:48.846Z,57.05
2019-06-10T03:20:36.170Z,57.02
2019-06-10T03:23:26.433Z,56.94
2019-06-10T03:26:12.392Z,56.96
2019-06-10T03:28:58.435Z,57.04
2019-06-10T03:31:48.059Z,57.12
2019-06-10T03:34:41.232Z,57.14
2019-06-10T03:37:23.292Z,57.11
2019-06-10T03:40:08.538Z,56.89
2019-06-10T03:42:55.753Z,56.76
2019-06-10T03:45:43.123Z,56.62
2019-06-10T03:48:32.789Z,56.66
2019-06-10T03:51:19.218Z,56.67
2019-06-10T03:54:05.909Z,56.65
2019-06-10T03:56:53.438Z,57.05
2019-06-10T03:59:42.229Z,56.93
2019-06-10T04:02:28.702Z,56.68
2019-06-10T04:05:17.376Z,56.71
2019-06-10T04:08:03.246Z,56.75
2019-06-10T04:10:52.102Z,56.68
2019-06-10T04:13:37.916Z,56.52
2019-06-10T04:16:26.680Z,56.56
2019-06-10T04:19:13.089Z,56.32
2019-06-10T04:21:59.823Z,56.19
2019-06-10T04:24:47.133Z,56.27
2019-06-10T04:27:34.506Z,56.55
2019-06-10T04:30:24.258Z,56.68
2019-06-10T04:33:10.095Z,56.74
2019-06-10T04:35:57.501Z,56.95
2019-06-10T04:38:44.995Z,57.12
2019-06-10T04:41:32.983Z,57.24
2019-06-10T04:44:22.886Z,57.32
2019-06-10T04:47:07.803Z,57.37
2019-06-10T04:49:55.176Z,57.45
2019-06-10T04:52:43.081Z,57.48
2019-06-10T04:55:32.486Z,57.11
2019-06-10T04:58:19.397Z,56.93
2019-06-10T05:01:04.944Z,56.80
2019-06-10T05:03:53.023Z,56.57
2019-06-10T05:06:42.188Z,56.64
2019-06-10T05:09:29.434Z,56.71
2019-06-10T05:12:16.594Z,56.74
2019-06-10T05:15:04.110Z,56.50
2019-06-10T05:17:52.686Z,56.07
2019-06-10T05:20:52.075Z,55.39
2019-06-10T05:23:26.465Z,54.16
2019-06-10T05:26:13.655Z,53.65
2019-06-10T05:29:03.156Z,52.90
2019-06-10T05:31:52.161Z,52.09
2019-06-10T05:34:37.270Z,52.01
2019-06-10T05:37:26.333Z,50.90
2019-06-10T05:40:12.893Z,51.60
2019-06-10T05:43:02.422Z,51.85
2019-06-10T05:45:48.081Z,51.69
2019-06-10T05:48:35.653Z,51.41
2019-06-10T05:51:25.811Z,51.04
2019-06-10T05:54:13.062Z,50.67
2019-06-10T05:57:02.560Z,50.49
2019-06-10T05:59:48.553Z,49.61
2019-06-10T06:02:35.753Z,49.33
2019-06-10T06:05:23.901Z,48.28
2019-06-10T06:08:12.583Z,48.61
2019-06-10T06:10:58.113Z,48.53
2019-06-10T06:13:45.321Z,48.27
2019-06-10T06:16:36.303Z,47.87
2019-06-10T06:19:23.687Z,47.18
2019-06-10T06:22:12.967Z,47.57
2019-06-10T06:24:58.965Z,48.01
2019-06-10T06:27:46.372Z,48.35
2019-06-10T06:30:36.133Z,47.97
2019-06-10T06:33:22.171Z,47.60
2019-06-10T06:36:12.326Z,47.25
2019-06-10T06:38:57.483Z,46.89
2019-06-10T06:41:45.364Z,46.58
2019-06-10T06:44:35.897Z,46.55
2019-06-10T06:47:22.405Z,47.53
2019-06-10T06:50:07.746Z,48.06
2019-06-10T06:53:23.391Z,48.84
2019-06-10T06:55:43.604Z,49.56
2019-06-10T06:58:33.462Z,49.28
2019-06-10T07:01:22.591Z,49.38
2019-06-10T07:04:07.451Z,49.26
2019-06-10T07:06:55.658Z,49.32
2019-06-10T07:09:43.358Z,49.80
2019-06-10T07:12:33.364Z,49.48
2019-06-10T07:15:18.941Z,49.36
2019-06-10T07:18:06.387Z,49.01
2019-06-10T07:20:54.166Z,48.77
2019-06-10T07:23:45.560Z,48.40
2019-06-10T07:26:34.127Z,47.88
2019-06-10T07:29:19.322Z,47.96
2019-06-10T07:32:06.735Z,48.75
2019-06-10T07:34:54.485Z,48.46
2019-06-10T07:37:44.520Z,48.20
2019-06-10T07:40:29.523Z,48.05
2019-06-10T07:43:16.920Z,48.30
2019-06-10T07:46:04.822Z,48.42
2019-06-10T07:48:56.371Z,47.88
2019-06-10T07:51:39.807Z,47.76
2019-06-10T07:54:27.844Z,47.42
2019-06-10T07:57:15.048Z,46.90
2019-06-10T08:00:03.154Z,46.28
2019-06-10T08:02:49.749Z,47.42
2019-06-10T08:05:37.753Z,47.51
2019-06-10T08:08:24.758Z,47.42
2019-06-10T08:11:13.640Z,47.24
2019-06-10T08:14:04.361Z,47.60
2019-06-10T08:16:48.659Z,47.61
2019-06-10T08:19:40.038Z,43.72
2019-06-10T08:22:34.238Z,44.82
2019-06-10T08:25:12.442Z,44.80
2019-06-10T08:27:58.684Z,46.32
2019-06-10T08:30:46.223Z,46.94
2019-06-10T08:33:33.785Z,47.14
2019-06-10T08:36:22.390Z,46.78
2019-06-10T08:39:11.935Z,45.12
2019-06-10T08:41:55.920Z,44.96
2019-06-10T08:44:44.025Z,46.47
2019-06-10T08:47:32.655Z,46.84
2019-06-10T08:50:22.243Z,46.58
2019-06-10T08:53:14.405Z,44.84
2019-06-10T08:55:54.692Z,44.79
2019-06-10T08:58:47.386Z,44.26
2019-06-10T09:01:29.767Z,44.85
2019-06-10T09:04:17.279Z,43.44
2019-06-10T09:07:05.298Z,43.64
2019-06-10T09:09:54.013Z,43.17
2019-06-10T09:12:41.262Z,42.03
2019-06-10T09:15:27.654Z,42.61
2019-06-10T09:18:19.702Z,40.57
2019-06-10T09:21:03.274Z,40.34
2019-06-10T09:23:58.554Z,42.47
2019-06-10T09:26:39.925Z,42.59
2019-06-10T09:29:26.030Z,42.78
2019-06-10T09:32:13.488Z,43.66
2019-06-10T09:35:03.454Z,42.11
2019-06-10T09:37:51.588Z,41.23
2019-06-10T09:40:59.002Z,39.42
2019-06-10T09:43:37.934Z,39.58
2019-06-10T09:46:25.348Z,36.59
2019-06-10T09:49:13.505Z,37.59
2019-06-10T09:52:03.470Z,37.97
2019-06-10T09:54:53.606Z,39.17
2019-06-10T09:57:36.518Z,39.47
2019-06-10T10:00:37.895Z,38.89
2019-06-10T10:03:25.103Z,38.15
2019-06-10T10:06:15.807Z,37.80
2019-06-10T10:09:03.459Z,36.29
2019-06-10T10:11:50.614Z,36.37
2019-06-10T10:14:36.957Z,35.71
2019-06-10T10:17:24.385Z,37.16
2019-06-10T10:20:12.331Z,38.44
2019-06-10T10:22:59.179Z,37.78
2019-06-10T10:25:48.243Z,37.57
2019-06-10T10:28:34.748Z,36.85
2019-06-10T10:31:23.365Z,36.46
2019-06-10T10:34:09.930Z,35.99
2019-06-10T10:36:57.518Z,35.62
2019-06-10T10:39:45.215Z,34.52
2019-06-10T10:42:42.744Z,35.19
2019-06-10T10:45:22.533Z,35.19
2019-06-10T10:48:08.141Z,34.30
2019-06-10T10:50:56.208Z,34.71
2019-06-10T10:53:46.536Z,33.13
2019-06-10T10:56:33.394Z,34.05
2019-06-10T10:59:19.009Z,33.53
2019-06-10T11:02:06.337Z,32.04
2019-06-10T11:04:56.831Z,30.94
2019-06-10T11:07:42.277Z,33.98
2019-06-10T11:10:28.879Z,34.70
2019-06-10T11:13:16.425Z,35.96
2019-06-10T11:16:03.708Z,36.60
2019-06-10T11:18:53.790Z,35.48
2019-06-10T11:21:38.852Z,32.69
2019-06-10T11:24:36.453Z,32.05
2019-06-10T11:27:14.407Z,32.57
2019-06-10T11:30:02.554Z,32.92
2019-06-10T11:32:53.535Z,31.57
2019-06-10T11:35:38.206Z,30.58
2019-06-10T11:38:25.579Z,29.35
2019-06-10T11:41:13.754Z,29.86
2019-06-10T11:44:00.869Z,31.34
2019-06-10T11:46:48.623Z,29.85
2019-06-10T11:49:36.296Z,30.02
2019-06-10T11:52:23.618Z,30.02
2019-06-10T11:55:18.292Z,28.86
2019-06-10T11:57:59.362Z,28.48
2019-06-10T12:00:46.749Z,30.09
2019-06-10T12:03:34.316Z,29.56
2019-06-10T12:06:22.840Z,30.30
2019-06-10T12:09:09.374Z,28.85
2019-06-10T12:12:01.283Z,28.97
2019-06-10T12:14:44.237Z,26.15
2019-06-10T12:17:45.595Z,28.09
2019-06-10T12:20:19.291Z,27.25
2019-06-10T12:23:06.619Z,26.86
2019-06-10T12:25:56.708Z,27.13
2019-06-10T12:28:43.236Z,27.66
2019-06-10T12:31:30.324Z,29.45
2019-06-10T12:34:17.774Z,30.40
2019-06-10T12:37:11.369Z,29.11
2019-06-10T12:39:56.569Z,28.34
2019-06-10T12:42:41.573Z,29.31
2019-06-10T12:45:28.288Z,31.79
2019-06-10T12:48:15.673Z,29.74
2019-06-10T12:51:08.811Z,30.92
2019-06-10T12:53:51.464Z,31.13
2019-06-10T12:56:38.782Z,31.89
2019-06-10T12:59:27.086Z,32.48
2019-06-10T13:02:22.718Z,33.03
2019-06-10T13:05:05.679Z,32.46
2019-06-10T13:07:48.503Z,33.36
2019-06-10T13:10:37.851Z,32.86
2019-06-10T13:13:25.689Z,31.68
2019-06-10T13:16:14.170Z,30.75
2019-06-10T13:19:03.275Z,30.06
2019-06-10T13:21:48.488Z,29.85
2019-06-10T13:24:36.063Z,29.34
2019-06-10T13:27:23.335Z,31.00
2019-06-10T13:30:10.703Z,30.37
2019-06-10T13:33:00.095Z,30.73
2019-06-10T13:35:46.594Z,30.47
2019-06-10T13:38:33.979Z,30.24
2019-06-10T13:41:22.772Z,30.31
2019-06-10T13:44:08.764Z,31.33
2019-06-10T13:46:56.709Z,32.09
2019-06-10T13:49:44.074Z,32.11
2019-06-10T13:52:32.139Z,32.00
2019-06-10T13:55:18.943Z,33.33
2019-06-10T13:58:09.610Z,34.18
2019-06-10T14:00:54.160Z,34.29
2019-06-10T14:03:43.240Z,34.89
2019-06-10T14:06:42.713Z,35.18
2019-06-10T14:09:16.924Z,37.04
2019-06-10T14:12:04.101Z,36.65
2019-06-10T14:14:53.295Z,37.12
2019-06-10T14:17:38.686Z,37.43
2019-06-10T14:20:26.286Z,38.36
2019-06-10T14:23:17.440Z,38.70
2019-06-10T14:26:04.181Z,37.84
2019-06-10T14:28:48.781Z,37.32
2019-06-10T14:31:43.589Z,36.88
2019-06-10T14:34:23.966Z,36.77
2019-06-10T14:37:12.798Z,35.44
2019-06-10T14:39:58.787Z,34.83
2019-06-10T14:42:46.757Z,35.46
2019-06-10T14:45:34.208Z,35.46
2019-06-10T14:48:23.484Z,36.83
2019-06-10T14:51:12.410Z,37.78
2019-06-10T14:54:03.127Z,37.15
2019-06-10T14:56:56.369Z,37.43
2019-06-10T14:59:37.650Z,38.22
2019-06-10T15:02:25.583Z,38.71
2019-06-10T15:05:15.575Z,38.19
2019-06-10T15:08:03.168Z,38.70
2019-06-10T15:10:48.239Z,39.88
2019-06-10T15:13:36.256Z,41.19
2019-06-10T15:16:24.351Z,40.22
2019-06-10T15:19:19.711Z,40.42
2019-06-10T15:21:59.747Z,41.17
2019-06-10T15:24:47.300Z,41.25
2019-06-10T15:27:34.736Z,41.20
2019-06-10T15:30:27.135Z,41.11
2019-06-10T15:33:11.137Z,41.73
2019-06-10T15:35:57.460Z,41.86
2019-06-10T15:38:45.535Z,41.15
2019-06-10T15:41:33.010Z,39.86
2019-06-10T15:44:41.746Z,39.39
2019-06-10T15:47:07.811Z,38.52
2019-06-10T15:49:55.228Z,38.24
2019-06-10T15:52:43.139Z,38.53
2019-06-10T15:55:55.515Z,38.22
2019-06-10T15:58:19.866Z,38.18
2019-06-10T16:01:06.197Z,38.79
2019-06-10T16:03:53.593Z,40.29
2019-06-10T16:06:42.466Z,41.14
2019-06-10T16:09:29.378Z,41.37
2019-06-10T16:12:18.295Z,41.30
2019-06-10T16:15:04.562Z,41.52
2019-06-10T16:17:53.552Z,42.07
2019-06-10T16:20:42.746Z,42.07
2019-06-10T16:23:27.442Z,41.58
2019-06-10T16:26:16.136Z,41.17
2019-06-10T16:29:02.843Z,41.45
2019-06-10T16:31:52.752Z,41.44
2019-06-10T16:34:37.797Z,41.72
2019-06-10T16:37:25.789Z,42.24
2019-06-10T16:40:12.550Z,42.74
2019-06-10T16:43:00.563Z,43.55
2019-06-10T16:45:47.806Z,44.23
2019-06-10T16:48:35.270Z,44.76
2019-06-10T16:51:23.719Z,45.12
2019-06-10T16:54:10.118Z,45.79
2019-06-10T16:56:57.408Z,46.40
2019-06-10T16:59:44.847Z,46.86
2019-06-10T17:02:33.132Z,47.32
2019-06-10T17:05:21.270Z,48.21
2019-06-10T17:08:08.420Z,48.96
2019-06-10T17:10:56.610Z,49.81
2019-06-10T17:13:44.213Z,50.54
2019-06-10T17:16:32.158Z,51.30
2019-06-10T17:19:21.251Z,51.95
2019-06-10T17:22:07.710Z,52.56
2019-06-10T17:24:55.046Z,52.95
2019-06-10T17:27:43.015Z,53.55
2019-06-10T17:30:30.923Z,54.38
2019-06-10T17:33:20.415Z,54.98
2019-06-10T17:36:06.159Z,55.86
2019-06-10T17:38:54.132Z,55.92
2019-06-10T17:41:42.679Z,55.92
2019-06-10T17:44:30.725Z,56.01
2019-06-10T17:47:16.502Z,56.27
2019-06-10T17:50:05.503Z,56.36
2019-06-10T17:52:53.640Z,56.72
2019-06-10T17:55:40.863Z,56.94
2019-06-10T17:58:40.810Z,57.07
2019-06-10T18:01:15.935Z,57.38
2019-06-10T18:04:04.035Z,57.58
2019-06-10T18:06:52.885Z,57.74
2019-06-10T18:09:39.419Z,58.05
2019-06-10T18:12:27.913Z,58.29
2019-06-10T18:15:14.578Z,58.55
2019-06-10T18:18:03.504Z,58.83
2019-06-10T18:20:53.309Z,58.93
2019-06-10T18:23:37.471Z,59.35
2019-06-10T18:26:25.300Z,59.51
2019-06-10T18:29:12.978Z,59.98
2019-06-10T18:32:03.261Z,60.44
2019-06-10T18:34:48.645Z,60.76
2019-06-10T18:37:38.758Z,61.04
2019-06-10T18:40:24.153Z,61.51
2019-06-10T18:43:12.169Z,61.92
2019-06-10T18:45:59.583Z,62.09
2019-06-10T18:48:46.979Z,62.45
2019-06-10T18:51:37.016Z,62.60
2019-06-10T18:54:22.693Z,62.75
2019-06-10T18:57:09.855Z,62.88
2019-06-10T18:59:57.949Z,63.09
2019-06-10T19:02:45.721Z,63.52
2019-06-10T19:05:34.653Z,63.72
2019-06-10T19:08:22.342Z,63.92
2019-06-10T19:11:09.132Z,63.89
2019-06-10T19:13:59.844Z,63.69
2019-06-10T19:16:44.091Z,63.64
2019-06-10T19:19:31.843Z,63.62
2019-06-10T19:22:19.265Z,63.65
2019-06-10T19:25:07.277Z,63.66
2019-06-10T19:27:55.208Z,63.65
2019-06-10T19:30:44.863Z,63.64
2019-06-10T19:33:32.465Z,63.81
2019-06-10T19:36:17.899Z,63.89
2019-06-10T19:39:06.931Z,64.23
2019-06-10T19:41:54.502Z,64.50
2019-06-10T19:44:45.567Z,64.53
2019-06-10T19:47:32.586Z,64.80
2019-06-10T19:50:18.085Z,65.03
2019-06-10T19:53:05.522Z,65.39
2019-06-10T19:55:53.434Z,65.88
2019-06-10T19:58:43.424Z,65.52
2019-06-10T20:01:28.449Z,65.23
2019-06-10T20:04:18.178Z,65.61
2019-06-10T20:07:03.786Z,65.55
2019-06-10T20:09:52.234Z,65.19
2019-06-10T20:12:38.716Z,65.62
2019-06-10T20:15:26.125Z,65.44
2019-06-10T20:18:13.653Z,65.34
2019-06-10T20:21:02.692Z,65.33
2019-06-10T20:23:49.507Z,65.30
2019-06-10T20:26:36.798Z,65.63
2019-06-10T20:29:24.599Z,65.63
2019-06-10T20:32:12.209Z,65.46
2019-06-10T20:34:59.642Z,64.89
2019-06-10T20:37:47.371Z,64.72
2019-06-10T20:40:35.454Z,64.76
2019-06-10T20:43:22.649Z,64.72
2019-06-10T20:46:09.960Z,64.65
2019-06-10T20:48:57.240Z,64.31
2019-06-10T20:51:56.947Z,64.36
2019-06-10T20:54:32.396Z,64.04
2019-06-10T20:57:19.598Z,64.02
2019-06-10T21:00:19.779Z,64.39
2019-06-10T21:02:55.078Z,64.18
2019-06-10T21:05:43.702Z,64.32
2019-06-10T21:08:33.251Z,64.20
2019-06-10T21:11:18.773Z,64.19
2019-06-10T21:14:06.112Z,64.24
2019-06-10T21:16:53.753Z,64.40
2019-06-10T21:19:44.564Z,64.61
2019-06-10T21:22:29.003Z,64.89
2019-06-10T21:25:16.978Z,64.69
2019-06-10T21:28:04.346Z,64.46
2019-06-10T21:30:54.932Z,64.38
2019-06-10T21:33:44.382Z,64.41
2019-06-10T21:36:29.002Z,64.54
2019-06-10T21:39:16.401Z,64.63
2019-06-10T21:42:03.647Z,64.91
2019-06-10T21:44:52.099Z,65.40
2019-06-10T21:47:38.396Z,65.93
2019-06-10T21:50:26.056Z,65.30
2019-06-10T21:53:13.790Z,65.52
2019-06-10T21:56:01.182Z,65.80
2019-06-10T21:58:48.885Z,66.15
2019-06-10T22:01:36.302Z,66.32
2019-06-10T22:04:23.675Z,66.86
2019-06-10T22:07:11.720Z,67.20
2019-06-10T22:10:02.350Z,67.57
2019-06-10T22:12:48.032Z,67.92
2019-06-10T22:15:35.185Z,68.07
2019-06-10T22:18:23.022Z,68.29
2019-06-10T22:21:10.204Z,68.30
2019-06-10T22:23:57.726Z,68.41
2019-06-10T22:26:45.144Z,68.53
2019-06-10T22:29:32.569Z,68.46
2019-06-10T22:32:20.201Z,68.40
2019-06-10T22:35:08.356Z,68.25
2019-06-10T22:37:56.670Z,68.20
2019-06-10T22:40:44.062Z,68.17
2019-06-10T22:43:32.187Z,68.06
2019-06-10T22:46:18.689Z,68.08
2019-06-10T22:49:06.120Z,68.22
2019-06-10T22:51:56.623Z,68.23
2019-06-10T22:54:43.069Z,68.39
2019-06-10T22:57:28.650Z,68.26
2019-06-10T23:00:16.060Z,68.24
2019-06-10T23:03:04.052Z,68.15
2019-06-10T23:05:52.356Z,68.21
2019-06-10T23:08:38.847Z,68.26
2019-06-10T23:11:26.373Z,68.40
2019-06-10T23:14:13.850Z,68.60
2019-06-10T23:17:03.004Z,68.92
2019-06-10T23:19:49.428Z,69.37
2019-06-10T23:22:37.326Z,69.50
2019-06-10T23:25:24.865Z,69.59
2019-06-10T23:28:13.109Z,69.47
2019-06-10T23:31:00.518Z,68.98
2019-06-10T23:33:47.060Z,68.29
2019-06-10T23:36:34.678Z,67.89
2019-06-10T23:39:22.785Z,67.27
2019-06-10T23:42:12.169Z,67.17
2019-06-10T23:44:57.499Z,66.95
2019-06-10T23:47:44.880Z,66.68
2019-06-10T23:50:32.879Z,65.95
2019-06-10T23:53:20.244Z,66.63
2019-06-10T23:56:07.637Z,66.99
2019-06-10T23:58:56.968Z,66.89
